sensor_id;sensor_type;location;lat;lon;timestamp;P1;durP1;ratioP1;P2;durP2;ratioP2
73841;SDS011;62184;52.006;5.924;2024-01-06T00:00:04;13.03;;;12.23;;
73841;SDS011;62184;52.006;5.924;2024-01-06T00:02:35;13.77;;;12.98;;
73841;SDS011;62184;52.006;5.924;2024-01-06T00:05:01;13.10;;;12.30;;
73841;SDS011;62184;52.006;5.924;2024-01-06T00:07:27;13.07;;;12.27;;
73841;SDS011;62184;52.006;5.924;2024-01-06T00:09:54;12.20;;;11.50;;
73841;SDS011;62184;52.006;5.924;2024-01-06T00:12:20;12.70;;;11.90;;
73841;SDS011;62184;52.006;5.924;2024-01-06T00:14:47;13.30;;;12.50;;
73841;SDS011;62184;52.006;5.924;2024-01-06T00:17:13;12.50;;;11.70;;
73841;SDS011;62184;52.006;5.924;2024-01-06T00:19:42;12.77;;;11.98;;
73841;SDS011;62184;52.006;5.924;2024-01-06T00:22:09;12.10;;;11.40;;
73841;SDS011;62184;52.006;5.924;2024-01-06T00:24:35;12.50;;;11.80;;
73841;SDS011;62184;52.006;5.924;2024-01-06T00:27:02;12.55;;;11.80;;
73841;SDS011;62184;52.006;5.924;2024-01-06T00:29:29;12.40;;;11.65;;
73841;SDS011;62184;52.006;5.924;2024-01-06T00:31:55;13.00;;;12.20;;
73841;SDS011;62184;52.006;5.924;2024-01-06T00:34:21;13.07;;;12.27;;
73841;SDS011;62184;52.006;5.924;2024-01-06T00:36:50;12.07;;;11.37;;
73841;SDS011;62184;52.006;5.924;2024-01-06T00:39:17;12.40;;;11.70;;
73841;SDS011;62184;52.006;5.924;2024-01-06T00:41:43;13.30;;;12.50;;
73841;SDS011;62184;52.006;5.924;2024-01-06T00:44:09;12.60;;;11.85;;
73841;SDS011;62184;52.006;5.924;2024-01-06T00:46:36;13.27;;;12.48;;
73841;SDS011;62184;52.006;5.924;2024-01-06T00:49:02;12.93;;;12.13;;
73841;SDS011;62184;52.006;5.924;2024-01-06T00:51:29;13.13;;;12.32;;
73841;SDS011;62184;52.006;5.924;2024-01-06T00:53:58;13.37;;;12.57;;
73841;SDS011;62184;52.006;5.924;2024-01-06T00:56:24;13.07;;;12.27;;
73841;SDS011;62184;52.006;5.924;2024-01-06T00:58:51;12.50;;;11.80;;
73841;SDS011;62184;52.006;5.924;2024-01-06T01:01:17;12.95;;;12.15;;
73841;SDS011;62184;52.006;5.924;2024-01-06T01:03:44;12.70;;;12.00;;
73841;SDS011;62184;52.006;5.924;2024-01-06T01:06:10;12.93;;;12.13;;
73841;SDS011;62184;52.006;5.924;2024-01-06T01:08:36;12.75;;;11.95;;
73841;SDS011;62184;52.006;5.924;2024-01-06T01:11:05;12.70;;;11.90;;
73841;SDS011;62184;52.006;5.924;2024-01-06T01:13:32;12.93;;;12.13;;
73841;SDS011;62184;52.006;5.924;2024-01-06T01:15:58;13.52;;;12.73;;
73841;SDS011;62184;52.006;5.924;2024-01-06T01:18:25;12.90;;;12.10;;
73841;SDS011;62184;52.006;5.924;2024-01-06T01:20:51;12.63;;;11.90;;
73841;SDS011;62184;52.006;5.924;2024-01-06T01:23:17;13.02;;;12.23;;
73841;SDS011;62184;52.006;5.924;2024-01-06T01:25:44;12.75;;;11.95;;
73841;SDS011;62184;52.006;5.924;2024-01-06T01:28:13;12.20;;;11.50;;
73841;SDS011;62184;52.006;5.924;2024-01-06T01:30:40;12.50;;;11.80;;
73841;SDS011;62184;52.006;5.924;2024-01-06T01:33:06;12.15;;;11.45;;
73841;SDS011;62184;52.006;5.924;2024-01-06T01:35:32;13.38;;;12.57;;
73841;SDS011;62184;52.006;5.924;2024-01-06T01:37:59;12.98;;;12.18;;
73841;SDS011;62184;52.006;5.924;2024-01-06T01:40:25;13.18;;;12.35;;
73841;SDS011;62184;52.006;5.924;2024-01-06T01:42:52;12.90;;;12.10;;
73841;SDS011;62184;52.006;5.924;2024-01-06T01:45:21;12.90;;;12.10;;
73841;SDS011;62184;52.006;5.924;2024-01-06T01:47:47;13.40;;;12.60;;
73841;SDS011;62184;52.006;5.924;2024-01-06T01:50:13;12.95;;;12.15;;
73841;SDS011;62184;52.006;5.924;2024-01-06T01:52:40;13.00;;;12.20;;
73841;SDS011;62184;52.006;5.924;2024-01-06T01:55:08;13.68;;;12.88;;
73841;SDS011;62184;52.006;5.924;2024-01-06T01:57:35;13.48;;;12.68;;
73841;SDS011;62184;52.006;5.924;2024-01-06T02:00:01;13.43;;;12.63;;
73841;SDS011;62184;52.006;5.924;2024-01-06T02:02:32;13.80;;;13.00;;
73841;SDS011;62184;52.006;5.924;2024-01-06T02:04:58;13.57;;;12.77;;
73841;SDS011;62184;52.006;5.924;2024-01-06T02:07:25;13.48;;;12.68;;
73841;SDS011;62184;52.006;5.924;2024-01-06T02:09:52;13.15;;;12.35;;
73841;SDS011;62184;52.006;5.924;2024-01-06T02:12:18;13.65;;;12.85;;
73841;SDS011;62184;52.006;5.924;2024-01-06T02:14:44;13.45;;;12.65;;
73841;SDS011;62184;52.006;5.924;2024-01-06T02:17:11;13.47;;;12.67;;
73841;SDS011;62184;52.006;5.924;2024-01-06T02:19:40;13.50;;;12.70;;
73841;SDS011;62184;52.006;5.924;2024-01-06T02:22:09;13.40;;;12.60;;
73841;SDS011;62184;52.006;5.924;2024-01-06T02:24:35;13.45;;;12.65;;
73841;SDS011;62184;52.006;5.924;2024-01-06T02:27:02;13.63;;;12.82;;
73841;SDS011;62184;52.006;5.924;2024-01-06T02:29:29;12.95;;;12.15;;
73841;SDS011;62184;52.006;5.924;2024-01-06T02:31:55;13.63;;;12.82;;
73841;SDS011;62184;52.006;5.924;2024-01-06T02:34:22;13.80;;;13.00;;
73841;SDS011;62184;52.006;5.924;2024-01-06T02:36:48;13.57;;;12.77;;
73841;SDS011;62184;52.006;5.924;2024-01-06T02:39:17;13.40;;;12.60;;
73841;SDS011;62184;52.006;5.924;2024-01-06T02:41:44;13.45;;;12.65;;
73841;SDS011;62184;52.006;5.924;2024-01-06T02:44:10;12.50;;;11.70;;
73841;SDS011;62184;52.006;5.924;2024-01-06T02:46:36;13.27;;;12.47;;
73841;SDS011;62184;52.006;5.924;2024-01-06T02:49:03;13.75;;;12.95;;
73841;SDS011;62184;52.006;5.924;2024-01-06T02:51:29;13.70;;;12.90;;
73841;SDS011;62184;52.006;5.924;2024-01-06T02:53:56;13.13;;;12.32;;
73841;SDS011;62184;52.006;5.924;2024-01-06T02:56:24;12.77;;;12.00;;
73841;SDS011;62184;52.006;5.924;2024-01-06T02:58:51;12.90;;;12.10;;
73841;SDS011;62184;52.006;5.924;2024-01-06T03:01:17;12.38;;;11.68;;
73841;SDS011;62184;52.006;5.924;2024-01-06T03:03:44;13.23;;;12.43;;
73841;SDS011;62184;52.006;5.924;2024-01-06T03:06:10;13.07;;;12.27;;
73841;SDS011;62184;52.006;5.924;2024-01-06T03:08:36;13.15;;;12.35;;
73841;SDS011;62184;52.006;5.924;2024-01-06T03:11:03;13.20;;;12.40;;
73841;SDS011;62184;52.006;5.924;2024-01-06T03:13:32;13.20;;;12.40;;
73841;SDS011;62184;52.006;5.924;2024-01-06T03:16:01;13.43;;;12.63;;
73841;SDS011;62184;52.006;5.924;2024-01-06T03:18:29;13.75;;;12.95;;
73841;SDS011;62184;52.006;5.924;2024-01-06T03:20:56;13.65;;;12.85;;
73841;SDS011;62184;52.006;5.924;2024-01-06T03:23:22;13.53;;;12.73;;
73841;SDS011;62184;52.006;5.924;2024-01-06T03:25:49;13.83;;;13.03;;
73841;SDS011;62184;52.006;5.924;2024-01-06T03:28:15;14.40;;;13.20;;
73841;SDS011;62184;52.006;5.924;2024-01-06T03:30:44;13.30;;;12.50;;
73841;SDS011;62184;52.006;5.924;2024-01-06T03:33:11;12.88;;;12.07;;
73841;SDS011;62184;52.006;5.924;2024-01-06T03:35:37;13.32;;;12.52;;
73841;SDS011;62184;52.006;5.924;2024-01-06T03:38:03;12.60;;;11.90;;
73841;SDS011;62184;52.006;5.924;2024-01-06T03:40:30;13.75;;;12.95;;
73841;SDS011;62184;52.006;5.924;2024-01-06T03:42:56;13.10;;;12.30;;
73841;SDS011;62184;52.006;5.924;2024-01-06T03:45:23;13.20;;;12.40;;
73841;SDS011;62184;52.006;5.924;2024-01-06T03:47:52;13.27;;;12.47;;
73841;SDS011;62184;52.006;5.924;2024-01-06T03:50:18;13.70;;;12.90;;
73841;SDS011;62184;52.006;5.924;2024-01-06T03:52:44;13.98;;;13.18;;
73841;SDS011;62184;52.006;5.924;2024-01-06T03:55:11;13.50;;;12.70;;
73841;SDS011;62184;52.006;5.924;2024-01-06T03:57:37;13.88;;;13.07;;
73841;SDS011;62184;52.006;5.924;2024-01-06T04:00:07;14.25;;;13.35;;
73841;SDS011;62184;52.006;5.924;2024-01-06T04:02:34;13.40;;;12.60;;
73841;SDS011;62184;52.006;5.924;2024-01-06T04:05:03;13.52;;;12.73;;
73841;SDS011;62184;52.006;5.924;2024-01-06T04:07:30;13.70;;;12.90;;
73841;SDS011;62184;52.006;5.924;2024-01-06T04:09:57;14.13;;;13.33;;
73841;SDS011;62184;52.006;5.924;2024-01-06T04:12:23;14.27;;;13.47;;
73841;SDS011;62184;52.006;5.924;2024-01-06T04:14:49;14.70;;;13.90;;
73841;SDS011;62184;52.006;5.924;2024-01-06T04:17:16;14.05;;;13.15;;
73841;SDS011;62184;52.006;5.924;2024-01-06T04:19:42;13.77;;;12.98;;
73841;SDS011;62184;52.006;5.924;2024-01-06T04:22:11;15.13;;;14.23;;
73841;SDS011;62184;52.006;5.924;2024-01-06T04:24:38;15.10;;;14.05;;
73841;SDS011;62184;52.006;5.924;2024-01-06T04:27:04;14.30;;;13.40;;
73841;SDS011;62184;52.006;5.924;2024-01-06T04:29:31;14.70;;;13.77;;
73841;SDS011;62184;52.006;5.924;2024-01-06T04:31:57;14.00;;;13.20;;
73841;SDS011;62184;52.006;5.924;2024-01-06T04:34:23;14.50;;;13.70;;
73841;SDS011;62184;52.006;5.924;2024-01-06T04:36:50;14.20;;;13.40;;
73841;SDS011;62184;52.006;5.924;2024-01-06T04:39:19;14.13;;;13.33;;
73841;SDS011;62184;52.006;5.924;2024-01-06T04:41:45;14.48;;;13.68;;
73841;SDS011;62184;52.006;5.924;2024-01-06T04:44:12;13.98;;;13.18;;
73841;SDS011;62184;52.006;5.924;2024-01-06T04:46:38;14.30;;;13.40;;
73841;SDS011;62184;52.006;5.924;2024-01-06T04:49:04;14.75;;;13.85;;
73841;SDS011;62184;52.006;5.924;2024-01-06T04:51:31;14.45;;;13.63;;
73841;SDS011;62184;52.006;5.924;2024-01-06T04:53:57;14.90;;;14.00;;
73841;SDS011;62184;52.006;5.924;2024-01-06T04:56:26;14.38;;;13.57;;
73841;SDS011;62184;52.006;5.924;2024-01-06T04:58:53;14.57;;;13.73;;
73841;SDS011;62184;52.006;5.924;2024-01-06T05:01:19;14.25;;;13.45;;
73841;SDS011;62184;52.006;5.924;2024-01-06T05:03:46;14.70;;;13.80;;
73841;SDS011;62184;52.006;5.924;2024-01-06T05:06:12;14.25;;;13.45;;
73841;SDS011;62184;52.006;5.924;2024-01-06T05:08:39;13.65;;;12.85;;
73841;SDS011;62184;52.006;5.924;2024-01-06T05:11:05;13.80;;;13.00;;
73841;SDS011;62184;52.006;5.924;2024-01-06T05:13:34;14.60;;;13.70;;
73841;SDS011;62184;52.006;5.924;2024-01-06T05:16:00;13.95;;;13.15;;
73841;SDS011;62184;52.006;5.924;2024-01-06T05:18:27;14.00;;;13.20;;
73841;SDS011;62184;52.006;5.924;2024-01-06T05:20:53;13.80;;;13.00;;
73841;SDS011;62184;52.006;5.924;2024-01-06T05:23:21;14.50;;;13.68;;
73841;SDS011;62184;52.006;5.924;2024-01-06T05:25:47;14.13;;;13.32;;
73841;SDS011;62184;52.006;5.924;2024-01-06T05:28:14;13.77;;;12.98;;
73841;SDS011;62184;52.006;5.924;2024-01-06T05:30:43;13.82;;;13.02;;
73841;SDS011;62184;52.006;5.924;2024-01-06T05:33:09;13.50;;;12.70;;
73841;SDS011;62184;52.006;5.924;2024-01-06T05:35:36;13.27;;;12.47;;
73841;SDS011;62184;52.006;5.924;2024-01-06T05:38:03;13.20;;;12.40;;
73841;SDS011;62184;52.006;5.924;2024-01-06T05:40:29;13.18;;;12.38;;
73841;SDS011;62184;52.006;5.924;2024-01-06T05:42:56;13.60;;;12.80;;
73841;SDS011;62184;52.006;5.924;2024-01-06T05:45:22;13.70;;;12.90;;
73841;SDS011;62184;52.006;5.924;2024-01-06T05:47:51;13.00;;;12.23;;
73841;SDS011;62184;52.006;5.924;2024-01-06T05:50:18;13.80;;;13.00;;
73841;SDS011;62184;52.006;5.924;2024-01-06T05:52:44;13.97;;;13.17;;
73841;SDS011;62184;52.006;5.924;2024-01-06T05:55:10;13.87;;;13.07;;
73841;SDS011;62184;52.006;5.924;2024-01-06T05:57:37;13.30;;;12.50;;
73841;SDS011;62184;52.006;5.924;2024-01-06T06:00:06;12.80;;;12.00;;
73841;SDS011;62184;52.006;5.924;2024-01-06T06:02:35;12.82;;;12.02;;
73841;SDS011;62184;52.006;5.924;2024-01-06T06:05:04;12.88;;;12.07;;
73841;SDS011;62184;52.006;5.924;2024-01-06T06:07:31;12.75;;;11.95;;
73841;SDS011;62184;52.006;5.924;2024-01-06T06:09:57;12.90;;;12.10;;
73841;SDS011;62184;52.006;5.924;2024-01-06T06:12:23;13.10;;;12.30;;
73841;SDS011;62184;52.006;5.924;2024-01-06T06:14:50;12.90;;;12.10;;
73841;SDS011;62184;52.006;5.924;2024-01-06T06:17:16;12.80;;;12.00;;
73841;SDS011;62184;52.006;5.924;2024-01-06T06:19:43;14.32;;;13.52;;
73841;SDS011;62184;52.006;5.924;2024-01-06T06:22:12;13.65;;;12.85;;
73841;SDS011;62184;52.006;5.924;2024-01-06T06:24:38;12.82;;;12.02;;
73841;SDS011;62184;52.006;5.924;2024-01-06T06:27:04;13.57;;;12.77;;
73841;SDS011;62184;52.006;5.924;2024-01-06T06:29:31;13.27;;;12.48;;
73841;SDS011;62184;52.006;5.924;2024-01-06T06:31:57;13.80;;;13.00;;
73841;SDS011;62184;52.006;5.924;2024-01-06T06:34:24;12.90;;;12.15;;
73841;SDS011;62184;52.006;5.924;2024-01-06T06:36:50;13.23;;;12.43;;
73841;SDS011;62184;52.006;5.924;2024-01-06T06:39:19;13.90;;;12.90;;
73841;SDS011;62184;52.006;5.924;2024-01-06T06:41:45;12.70;;;11.98;;
73841;SDS011;62184;52.006;5.924;2024-01-06T06:44:12;13.90;;;13.10;;
73841;SDS011;62184;52.006;5.924;2024-01-06T06:46:39;12.18;;;11.38;;
73841;SDS011;62184;52.006;5.924;2024-01-06T06:49:05;12.60;;;11.80;;
73841;SDS011;62184;52.006;5.924;2024-01-06T06:51:31;12.55;;;11.85;;
73841;SDS011;62184;52.006;5.924;2024-01-06T06:53:58;13.00;;;12.20;;
73841;SDS011;62184;52.006;5.924;2024-01-06T06:56:27;12.43;;;11.70;;
73841;SDS011;62184;52.006;5.924;2024-01-06T06:58:53;11.85;;;11.10;;
73841;SDS011;62184;52.006;5.924;2024-01-06T07:01:20;12.63;;;11.83;;
73841;SDS011;62184;52.006;5.924;2024-01-06T07:03:46;12.30;;;11.60;;
73841;SDS011;62184;52.006;5.924;2024-01-06T07:06:12;12.23;;;11.53;;
73841;SDS011;62184;52.006;5.924;2024-01-06T07:08:39;12.10;;;11.40;;
73841;SDS011;62184;52.006;5.924;2024-01-06T07:11:05;13.00;;;12.20;;
73841;SDS011;62184;52.006;5.924;2024-01-06T07:13:34;12.40;;;11.70;;
73841;SDS011;62184;52.006;5.924;2024-01-06T07:16:01;12.98;;;12.18;;
73841;SDS011;62184;52.006;5.924;2024-01-06T07:18:27;13.20;;;12.40;;
73841;SDS011;62184;52.006;5.924;2024-01-06T07:20:54;12.50;;;11.70;;
73841;SDS011;62184;52.006;5.924;2024-01-06T07:23:20;13.55;;;12.75;;
73841;SDS011;62184;52.006;5.924;2024-01-06T07:25:46;13.32;;;12.52;;
73841;SDS011;62184;52.006;5.924;2024-01-06T07:28:13;13.05;;;12.25;;
73841;SDS011;62184;52.006;5.924;2024-01-06T07:30:42;12.82;;;12.02;;
73841;SDS011;62184;52.006;5.924;2024-01-06T07:33:08;12.95;;;12.15;;
73841;SDS011;62184;52.006;5.924;2024-01-06T07:35:35;12.65;;;11.85;;
73841;SDS011;62184;52.006;5.924;2024-01-06T07:38:01;12.60;;;11.80;;
73841;SDS011;62184;52.006;5.924;2024-01-06T07:40:28;12.75;;;11.95;;
73841;SDS011;62184;52.006;5.924;2024-01-06T07:42:54;12.52;;;11.73;;
73841;SDS011;62184;52.006;5.924;2024-01-06T07:45:20;13.32;;;12.52;;
73841;SDS011;62184;52.006;5.924;2024-01-06T07:47:49;13.27;;;12.48;;
73841;SDS011;62184;52.006;5.924;2024-01-06T07:50:16;13.00;;;12.20;;
73841;SDS011;62184;52.006;5.924;2024-01-06T07:52:42;14.38;;;13.57;;
73841;SDS011;62184;52.006;5.924;2024-01-06T07:55:09;14.00;;;13.10;;
73841;SDS011;62184;52.006;5.924;2024-01-06T07:57:35;13.50;;;12.70;;
73841;SDS011;62184;52.006;5.924;2024-01-06T08:00:02;13.43;;;12.63;;
73841;SDS011;62184;52.006;5.924;2024-01-06T08:02:29;13.50;;;12.70;;
73841;SDS011;62184;52.006;5.924;2024-01-06T08:04:58;13.38;;;12.48;;
73841;SDS011;62184;52.006;5.924;2024-01-06T08:07:25;15.05;;;14.15;;
73841;SDS011;62184;52.006;5.924;2024-01-06T08:09:51;14.18;;;13.38;;
73841;SDS011;62184;52.006;5.924;2024-01-06T08:12:18;14.88;;;13.98;;
73841;SDS011;62184;52.006;5.924;2024-01-06T08:14:44;14.70;;;13.80;;
73841;SDS011;62184;52.006;5.924;2024-01-06T08:17:10;14.77;;;13.87;;
73841;SDS011;62184;52.006;5.924;2024-01-06T08:19:37;14.50;;;13.60;;
73841;SDS011;62184;52.006;5.924;2024-01-06T08:22:06;14.57;;;13.67;;
73841;SDS011;62184;52.006;5.924;2024-01-06T08:24:32;14.32;;;13.43;;
73841;SDS011;62184;52.006;5.924;2024-01-06T08:26:58;14.10;;;13.30;;
73841;SDS011;62184;52.006;5.924;2024-01-06T08:29:25;14.77;;;13.88;;
73841;SDS011;62184;52.006;5.924;2024-01-06T08:31:52;14.75;;;13.85;;
73841;SDS011;62184;52.006;5.924;2024-01-06T08:34:18;14.70;;;13.80;;
73841;SDS011;62184;52.006;5.924;2024-01-06T08:36:44;14.88;;;13.98;;
73841;SDS011;62184;52.006;5.924;2024-01-06T08:39:13;12.48;;;11.68;;
73841;SDS011;62184;52.006;5.924;2024-01-06T08:41:40;14.30;;;13.40;;
73841;SDS011;62184;52.006;5.924;2024-01-06T08:44:06;13.00;;;12.10;;
73841;SDS011;62184;52.006;5.924;2024-01-06T08:46:33;13.02;;;12.23;;
73841;SDS011;62184;52.006;5.924;2024-01-06T08:48:59;12.75;;;11.95;;
73841;SDS011;62184;52.006;5.924;2024-01-06T08:51:26;12.90;;;12.10;;
73841;SDS011;62184;52.006;5.924;2024-01-06T08:53:52;12.98;;;12.18;;
73841;SDS011;62184;52.006;5.924;2024-01-06T08:56:21;13.40;;;12.50;;
73841;SDS011;62184;52.006;5.924;2024-01-06T08:58:48;13.40;;;12.60;;
73841;SDS011;62184;52.006;5.924;2024-01-06T09:01:14;13.68;;;12.77;;
73841;SDS011;62184;52.006;5.924;2024-01-06T09:03:40;13.55;;;12.65;;
73841;SDS011;62184;52.006;5.924;2024-01-06T09:06:07;13.65;;;12.75;;
73841;SDS011;62184;52.006;5.924;2024-01-06T09:08:33;13.77;;;12.88;;
73841;SDS011;62184;52.006;5.924;2024-01-06T09:11:00;13.68;;;12.75;;
73841;SDS011;62184;52.006;5.924;2024-01-06T09:13:29;13.63;;;12.73;;
73841;SDS011;62184;52.006;5.924;2024-01-06T09:15:55;14.10;;;13.20;;
73841;SDS011;62184;52.006;5.924;2024-01-06T09:18:22;13.40;;;12.50;;
73841;SDS011;62184;52.006;5.924;2024-01-06T09:20:48;13.95;;;13.05;;
73841;SDS011;62184;52.006;5.924;2024-01-06T09:23:15;13.52;;;12.63;;
73841;SDS011;62184;52.006;5.924;2024-01-06T09:25:42;13.82;;;12.93;;
73841;SDS011;62184;52.006;5.924;2024-01-06T09:28:09;14.00;;;13.00;;
73841;SDS011;62184;52.006;5.924;2024-01-06T09:30:38;12.93;;;12.13;;
73841;SDS011;62184;52.006;5.924;2024-01-06T09:33:04;13.90;;;13.00;;
73841;SDS011;62184;52.006;5.924;2024-01-06T09:35:31;15.17;;;14.13;;
73841;SDS011;62184;52.006;5.924;2024-01-06T09:37:57;13.80;;;12.90;;
73841;SDS011;62184;52.006;5.924;2024-01-06T09:40:23;13.63;;;12.73;;
73841;SDS011;62184;52.006;5.924;2024-01-06T09:42:50;14.65;;;13.65;;
73841;SDS011;62184;52.006;5.924;2024-01-06T09:45:17;14.40;;;13.40;;
73841;SDS011;62184;52.006;5.924;2024-01-06T09:47:48;13.77;;;12.88;;
73841;SDS011;62184;52.006;5.924;2024-01-06T09:50:17;15.50;;;14.40;;
73841;SDS011;62184;52.006;5.924;2024-01-06T09:52:45;15.37;;;14.37;;
73841;SDS011;62184;52.006;5.924;2024-01-06T09:55:13;15.20;;;14.20;;
73841;SDS011;62184;52.006;5.924;2024-01-06T09:57:40;14.52;;;13.63;;
73841;SDS011;62184;52.006;5.924;2024-01-06T10:00:07;14.93;;;13.93;;
73841;SDS011;62184;52.006;5.924;2024-01-06T10:02:34;14.40;;;13.45;;
73841;SDS011;62184;52.006;5.924;2024-01-06T10:05:03;14.40;;;13.48;;
73841;SDS011;62184;52.006;5.924;2024-01-06T10:07:31;15.05;;;14.05;;
73841;SDS011;62184;52.006;5.924;2024-01-06T10:09:57;14.40;;;13.50;;
73841;SDS011;62184;52.006;5.924;2024-01-06T10:12:24;14.82;;;13.82;;
73841;SDS011;62184;52.006;5.924;2024-01-06T10:14:51;14.55;;;13.57;;
73841;SDS011;62184;52.006;5.924;2024-01-06T10:17:18;14.63;;;13.63;;
73841;SDS011;62184;52.006;5.924;2024-01-06T10:19:44;15.50;;;14.50;;
73841;SDS011;62184;52.006;5.924;2024-01-06T10:22:14;15.15;;;14.15;;
73841;SDS011;62184;52.006;5.924;2024-01-06T10:24:40;14.98;;;13.98;;
73841;SDS011;62184;52.006;5.924;2024-01-06T10:27:07;14.50;;;13.60;;
73841;SDS011;62184;52.006;5.924;2024-01-06T10:29:34;14.30;;;13.40;;
73841;SDS011;62184;52.006;5.924;2024-01-06T10:32:01;15.00;;;14.02;;
73841;SDS011;62184;52.006;5.924;2024-01-06T10:34:29;15.38;;;14.38;;
73841;SDS011;62184;52.006;5.924;2024-01-06T10:36:55;15.50;;;14.50;;
73841;SDS011;62184;52.006;5.924;2024-01-06T10:39:25;16.10;;;15.10;;
73841;SDS011;62184;52.006;5.924;2024-01-06T10:41:51;15.90;;;14.90;;
73841;SDS011;62184;52.006;5.924;2024-01-06T10:44:19;15.55;;;14.55;;
73841;SDS011;62184;52.006;5.924;2024-01-06T10:46:48;15.18;;;14.20;;
73841;SDS011;62184;52.006;5.924;2024-01-06T10:49:17;15.32;;;14.32;;
73841;SDS011;62184;52.006;5.924;2024-01-06T10:51:45;17.17;;;16.08;;
73841;SDS011;62184;52.006;5.924;2024-01-06T10:54:14;15.50;;;14.50;;
73841;SDS011;62184;52.006;5.924;2024-01-06T10:56:45;15.50;;;14.50;;
73841;SDS011;62184;52.006;5.924;2024-01-06T10:59:17;15.20;;;14.20;;
73841;SDS011;62184;52.006;5.924;2024-01-06T11:01:49;15.10;;;14.20;;
73841;SDS011;62184;52.006;5.924;2024-01-06T11:04:18;15.43;;;14.43;;
73841;SDS011;62184;52.006;5.924;2024-01-06T11:06:47;15.60;;;14.60;;
73841;SDS011;62184;52.006;5.924;2024-01-06T11:09:17;15.40;;;14.40;;
73841;SDS011;62184;52.006;5.924;2024-01-06T11:11:52;15.18;;;14.18;;
73841;SDS011;62184;52.006;5.924;2024-01-06T11:14:21;15.80;;;14.80;;
73841;SDS011;62184;52.006;5.924;2024-01-06T11:16:49;14.85;;;13.95;;
73841;SDS011;62184;52.006;5.924;2024-01-06T11:22:20;15.17;;;14.27;;
73841;SDS011;62184;52.006;5.924;2024-01-06T11:24:50;15.73;;;14.70;;
73841;SDS011;62184;52.006;5.924;2024-01-06T11:27:22;16.53;;;15.53;;
73841;SDS011;62184;52.006;5.924;2024-01-06T11:29:51;14.90;;;14.00;;
73841;SDS011;62184;52.006;5.924;2024-01-06T11:32:26;15.73;;;14.73;;
73841;SDS011;62184;52.006;5.924;2024-01-06T11:34:55;15.17;;;14.27;;
73841;SDS011;62184;52.006;5.924;2024-01-06T11:37:34;15.77;;;14.83;;
73841;SDS011;62184;52.006;5.924;2024-01-06T11:40:03;14.70;;;13.80;;
73841;SDS011;62184;52.006;5.924;2024-01-06T11:42:37;15.40;;;14.40;;
73841;SDS011;62184;52.006;5.924;2024-01-06T11:45:07;14.93;;;14.02;;
73841;SDS011;62184;52.006;5.924;2024-01-06T11:47:35;15.43;;;14.43;;
73841;SDS011;62184;52.006;5.924;2024-01-06T11:50:02;15.80;;;14.80;;
73841;SDS011;62184;52.006;5.924;2024-01-06T11:52:29;15.80;;;14.80;;
73841;SDS011;62184;52.006;5.924;2024-01-06T11:54:56;16.80;;;15.80;;
73841;SDS011;62184;52.006;5.924;2024-01-06T11:57:24;16.65;;;15.55;;
73841;SDS011;62184;52.006;5.924;2024-01-06T11:59:53;16.40;;;15.30;;
73841;SDS011;62184;52.006;5.924;2024-01-06T12:02:20;15.88;;;14.77;;
73841;SDS011;62184;52.006;5.924;2024-01-06T12:04:48;16.23;;;15.23;;
73841;SDS011;62184;52.006;5.924;2024-01-06T12:07:15;17.13;;;16.05;;
73841;SDS011;62184;52.006;5.924;2024-01-06T12:09:42;15.73;;;14.73;;
73841;SDS011;62184;52.006;5.924;2024-01-06T12:12:08;15.43;;;14.43;;
73841;SDS011;62184;52.006;5.924;2024-01-06T12:14:36;16.35;;;15.35;;
73841;SDS011;62184;52.006;5.924;2024-01-06T12:17:06;16.65;;;15.60;;
73841;SDS011;62184;52.006;5.924;2024-01-06T12:19:33;17.20;;;16.10;;
73841;SDS011;62184;52.006;5.924;2024-01-06T12:21:59;15.95;;;14.95;;
73841;SDS011;62184;52.006;5.924;2024-01-06T12:24:28;16.13;;;15.13;;
73841;SDS011;62184;52.006;5.924;2024-01-06T12:26:55;16.45;;;15.40;;
73841;SDS011;62184;52.006;5.924;2024-01-06T12:29:22;16.50;;;15.40;;
73841;SDS011;62184;52.006;5.924;2024-01-06T12:31:52;15.48;;;14.52;;
73841;SDS011;62184;52.006;5.924;2024-01-06T12:34:21;15.35;;;14.45;;
73841;SDS011;62184;52.006;5.924;2024-01-06T12:36:48;15.87;;;14.87;;
73841;SDS011;62184;52.006;5.924;2024-01-06T12:39:19;15.27;;;14.27;;
73841;SDS011;62184;52.006;5.924;2024-01-06T12:41:45;15.32;;;14.38;;
73841;SDS011;62184;52.006;5.924;2024-01-06T12:44:12;15.43;;;14.43;;
73841;SDS011;62184;52.006;5.924;2024-01-06T12:46:39;15.45;;;14.48;;
73841;SDS011;62184;52.006;5.924;2024-01-06T12:49:05;15.40;;;14.40;;
73841;SDS011;62184;52.006;5.924;2024-01-06T12:51:34;15.50;;;14.50;;
73841;SDS011;62184;52.006;5.924;2024-01-06T12:54:01;14.40;;;13.50;;
73841;SDS011;62184;52.006;5.924;2024-01-06T12:56:27;16.42;;;15.43;;
73841;SDS011;62184;52.006;5.924;2024-01-06T12:58:54;14.80;;;13.90;;
73841;SDS011;62184;52.006;5.924;2024-01-06T13:01:20;15.20;;;14.20;;
73841;SDS011;62184;52.006;5.924;2024-01-06T13:03:47;15.57;;;14.48;;
73841;SDS011;62184;52.006;5.924;2024-01-06T13:06:13;14.73;;;13.82;;
73841;SDS011;62184;52.006;5.924;2024-01-06T13:08:42;15.15;;;14.18;;
73841;SDS011;62184;52.006;5.924;2024-01-06T13:11:09;14.95;;;14.05;;
73841;SDS011;62184;52.006;5.924;2024-01-06T13:13:35;14.90;;;14.00;;
73841;SDS011;62184;52.006;5.924;2024-01-06T13:16:02;14.50;;;13.60;;
73841;SDS011;62184;52.006;5.924;2024-01-06T13:18:29;14.52;;;13.63;;
73841;SDS011;62184;52.006;5.924;2024-01-06T13:20:55;15.85;;;14.85;;
73841;SDS011;62184;52.006;5.924;2024-01-06T13:23:22;15.45;;;14.45;;
73841;SDS011;62184;52.006;5.924;2024-01-06T13:25:51;16.15;;;15.05;;
73841;SDS011;62184;52.006;5.924;2024-01-06T13:28:18;15.43;;;14.50;;
73841;SDS011;62184;52.006;5.924;2024-01-06T13:30:44;15.18;;;14.18;;
73841;SDS011;62184;52.006;5.924;2024-01-06T13:33:13;14.40;;;13.50;;
73841;SDS011;62184;52.006;5.924;2024-01-06T13:35:40;15.80;;;14.75;;
73841;SDS011;62184;52.006;5.924;2024-01-06T13:38:06;14.82;;;13.93;;
73841;SDS011;62184;52.006;5.924;2024-01-06T13:40:33;14.65;;;13.75;;
73841;SDS011;62184;52.006;5.924;2024-01-06T13:43:02;14.57;;;13.68;;
73841;SDS011;62184;52.006;5.924;2024-01-06T13:45:29;15.68;;;14.57;;
73841;SDS011;62184;52.006;5.924;2024-01-06T13:47:55;14.50;;;13.60;;
73841;SDS011;62184;52.006;5.924;2024-01-06T13:50:22;15.88;;;14.88;;
73841;SDS011;62184;52.006;5.924;2024-01-06T13:52:48;15.70;;;14.68;;
73841;SDS011;62184;52.006;5.924;2024-01-06T13:55:15;15.68;;;14.68;;
73841;SDS011;62184;52.006;5.924;2024-01-06T13:57:41;15.50;;;14.40;;
73841;SDS011;62184;52.006;5.924;2024-01-06T14:00:10;15.20;;;14.20;;
73841;SDS011;62184;52.006;5.924;2024-01-06T14:02:37;15.48;;;14.45;;
73841;SDS011;62184;52.006;5.924;2024-01-06T14:05:05;16.05;;;14.95;;
73841;SDS011;62184;52.006;5.924;2024-01-06T14:07:32;15.50;;;14.50;;
73841;SDS011;62184;52.006;5.924;2024-01-06T14:09:59;14.98;;;13.98;;
73841;SDS011;62184;52.006;5.924;2024-01-06T14:12:25;15.75;;;14.65;;
73841;SDS011;62184;52.006;5.924;2024-01-06T14:14:51;14.57;;;13.68;;
73841;SDS011;62184;52.006;5.924;2024-01-06T14:17:20;14.57;;;13.63;;
73841;SDS011;62184;52.006;5.924;2024-01-06T14:19:47;14.80;;;13.80;;
73841;SDS011;62184;52.006;5.924;2024-01-06T14:22:13;14.27;;;13.27;;